Escribe el Código OACI del Aeropuerto

Buscar por Aeropuerto o Ciudad

Información Meteorológica Actual

GCLP | Gran Canaria Airport

Gran Canaria, Canary Islands, Spain

Última Actualización Hace 31 Minutos

Cielo Despejado

20 ºC de Temperatura

Vientos Leves a Moderados del NorEste

Temperatura

20 ºC

Temperatura del Punto de Rocío

15 ºC

Humedad Relativa

73.07 %

Dirección del Viento

NorEste (040º, Sin Variaciones de Consideración)

Velocidad del Viento

15 km/h (08 kt)

Ráfagas

No Hay

Visibilidad

Sin Reducciones de Consideración

Presión Reducida a Nivel del Mar

1023 hPa (Hectopascales)

Capas de Nubes

No Hay

METAR GCLP 071430Z 04008KT CAVOK 20/15 Q1023 NOSIG

Pronóstico Meteorológico

GCLP | Gran Canaria Airport

Gran Canaria, Canary Islands, Spain

Pronóstico válido para las próximas 24 Horas

A partir de este momento se espera:

Cielo con Nubes Dispersas

Vientos Moderados del Norte

Temperatura Máxima

22 ºC en 22 Horas

Temperatura Mínima

16 ºC en 15 Horas

TAF GCLP 071400Z 0715/0815 01010KT 9999 FEW035 TX22/0813Z TN16/0806Z